sensor_id;sensor_type;location;lat;lon;timestamp;P1;durP1;ratioP1;P2;durP2;ratioP2
34982;SDS011;21187;50.976;13.720;2023-09-08T00:02:07;6.72;;;3.45;;
34982;SDS011;21187;50.976;13.720;2023-09-08T00:07:09;6.60;;;3.13;;
34982;SDS011;21187;50.976;13.720;2023-09-08T00:12:10;9.23;;;3.80;;
34982;SDS011;21187;50.976;13.720;2023-09-08T00:17:12;6.07;;;3.22;;
34982;SDS011;21187;50.976;13.720;2023-09-08T00:22:14;6.55;;;3.38;;
34982;SDS011;21187;50.976;13.720;2023-09-08T00:27:16;9.35;;;3.97;;
34982;SDS011;21187;50.976;13.720;2023-09-08T00:32:18;7.85;;;3.67;;
34982;SDS011;21187;50.976;13.720;2023-09-08T00:37:20;6.93;;;4.05;;
34982;SDS011;21187;50.976;13.720;2023-09-08T00:42:22;9.63;;;4.50;;
34982;SDS011;21187;50.976;13.720;2023-09-08T00:47:24;10.68;;;4.38;;
34982;SDS011;21187;50.976;13.720;2023-09-08T00:52:26;7.45;;;4.13;;
34982;SDS011;21187;50.976;13.720;2023-09-08T00:57:33;7.10;;;3.88;;
34982;SDS011;21187;50.976;13.720;2023-09-08T01:02:36;7.40;;;3.88;;
34982;SDS011;21187;50.976;13.720;2023-09-08T01:07:38;9.40;;;4.25;;
34982;SDS011;21187;50.976;13.720;2023-09-08T01:12:40;6.97;;;3.47;;
34982;SDS011;21187;50.976;13.720;2023-09-08T01:17:42;8.00;;;3.80;;
34982;SDS011;21187;50.976;13.720;2023-09-08T01:28:38;10.85;;;4.15;;
34982;SDS011;21187;50.976;13.720;2023-09-08T01:33:42;7.30;;;3.95;;
34982;SDS011;21187;50.976;13.720;2023-09-08T01:38:45;12.25;;;4.15;;
34982;SDS011;21187;50.976;13.720;2023-09-08T01:43:47;7.47;;;4.35;;
34982;SDS011;21187;50.976;13.720;2023-09-08T01:48:49;9.20;;;4.25;;
34982;SDS011;21187;50.976;13.720;2023-09-08T01:53:51;8.27;;;3.70;;
34982;SDS011;21187;50.976;13.720;2023-09-08T01:58:53;8.82;;;4.28;;
34982;SDS011;21187;50.976;13.720;2023-09-08T02:03:56;9.70;;;4.80;;
34982;SDS011;21187;50.976;13.720;2023-09-08T02:08:58;8.88;;;4.43;;
34982;SDS011;21187;50.976;13.720;2023-09-08T02:14:00;5.95;;;3.42;;
34982;SDS011;21187;50.976;13.720;2023-09-08T02:19:01;10.27;;;4.40;;
34982;SDS011;21187;50.976;13.720;2023-09-08T02:24:03;12.13;;;5.07;;
34982;SDS011;21187;50.976;13.720;2023-09-08T02:29:06;11.80;;;4.88;;
34982;SDS011;21187;50.976;13.720;2023-09-08T02:34:08;8.60;;;4.32;;
34982;SDS011;21187;50.976;13.720;2023-09-08T02:39:11;8.98;;;4.57;;
34982;SDS011;21187;50.976;13.720;2023-09-08T02:44:13;6.60;;;3.90;;
34982;SDS011;21187;50.976;13.720;2023-09-08T02:49:15;8.55;;;4.43;;
34982;SDS011;21187;50.976;13.720;2023-09-08T02:54:17;7.40;;;4.28;;
34982;SDS011;21187;50.976;13.720;2023-09-08T02:59:19;14.13;;;4.60;;
34982;SDS011;21187;50.976;13.720;2023-09-08T03:04:21;10.82;;;4.55;;
34982;SDS011;21187;50.976;13.720;2023-09-08T03:09:23;10.05;;;4.28;;
34982;SDS011;21187;50.976;13.720;2023-09-08T03:14:25;9.75;;;4.75;;
34982;SDS011;21187;50.976;13.720;2023-09-08T03:19:27;9.80;;;4.78;;
34982;SDS011;21187;50.976;13.720;2023-09-08T03:24:29;9.40;;;4.57;;
34982;SDS011;21187;50.976;13.720;2023-09-08T03:29:31;10.05;;;4.82;;
34982;SDS011;21187;50.976;13.720;2023-09-08T03:34:33;8.98;;;4.68;;
34982;SDS011;21187;50.976;13.720;2023-09-08T03:39:35;10.25;;;4.80;;
34982;SDS011;21187;50.976;13.720;2023-09-08T03:44:37;8.93;;;4.57;;
34982;SDS011;21187;50.976;13.720;2023-09-08T03:49:39;9.55;;;4.43;;
34982;SDS011;21187;50.976;13.720;2023-09-08T03:54:41;15.20;;;4.72;;
34982;SDS011;21187;50.976;13.720;2023-09-08T03:59:44;8.55;;;4.80;;
34982;SDS011;21187;50.976;13.720;2023-09-08T04:04:46;9.32;;;4.60;;
34982;SDS011;21187;50.976;13.720;2023-09-08T04:09:48;13.00;;;4.70;;
34982;SDS011;21187;50.976;13.720;2023-09-08T04:14:50;14.65;;;5.03;;
34982;SDS011;21187;50.976;13.720;2023-09-08T04:19:52;12.13;;;5.03;;
34982;SDS011;21187;50.976;13.720;2023-09-08T04:24:54;9.05;;;4.82;;
34982;SDS011;21187;50.976;13.720;2023-09-08T04:29:57;8.95;;;4.88;;
34982;SDS011;21187;50.976;13.720;2023-09-08T04:35:00;13.38;;;4.45;;
34982;SDS011;21187;50.976;13.720;2023-09-08T04:40:03;9.65;;;5.20;;
34982;SDS011;21187;50.976;13.720;2023-09-08T04:45:06;8.63;;;5.10;;
34982;SDS011;21187;50.976;13.720;2023-09-08T04:50:10;12.23;;;4.70;;
34982;SDS011;21187;50.976;13.720;2023-09-08T04:55:12;8.30;;;4.90;;
34982;SDS011;21187;50.976;13.720;2023-09-08T05:00:14;10.07;;;4.88;;
34982;SDS011;21187;50.976;13.720;2023-09-08T05:05:16;12.88;;;5.38;;
34982;SDS011;21187;50.976;13.720;2023-09-08T05:10:18;8.50;;;4.93;;
34982;SDS011;21187;50.976;13.720;2023-09-08T05:15:20;8.45;;;4.53;;
34982;SDS011;21187;50.976;13.720;2023-09-08T05:20:26;9.95;;;5.10;;
34982;SDS011;21187;50.976;13.720;2023-09-08T05:25:28;12.25;;;5.03;;
34982;SDS011;21187;50.976;13.720;2023-09-08T05:30:30;10.70;;;5.30;;
34982;SDS011;21187;50.976;13.720;2023-09-08T05:35:33;7.63;;;4.85;;
34982;SDS011;21187;50.976;13.720;2023-09-08T05:40:35;10.73;;;5.13;;
34982;SDS011;21187;50.976;13.720;2023-09-08T05:45:38;9.90;;;4.97;;
34982;SDS011;21187;50.976;13.720;2023-09-08T05:50:40;9.57;;;4.78;;
34982;SDS011;21187;50.976;13.720;2023-09-08T05:55:42;10.85;;;5.55;;
34982;SDS011;21187;50.976;13.720;2023-09-08T06:00:44;10.70;;;5.25;;
34982;SDS011;21187;50.976;13.720;2023-09-08T06:05:47;12.10;;;4.90;;
34982;SDS011;21187;50.976;13.720;2023-09-08T06:10:49;11.15;;;5.07;;
34982;SDS011;21187;50.976;13.720;2023-09-08T06:15:52;9.40;;;4.95;;
34982;SDS011;21187;50.976;13.720;2023-09-08T06:20:54;11.07;;;5.13;;
34982;SDS011;21187;50.976;13.720;2023-09-08T06:25:56;10.60;;;5.18;;
34982;SDS011;21187;50.976;13.720;2023-09-08T06:31:04;9.57;;;4.63;;
34982;SDS011;21187;50.976;13.720;2023-09-08T06:36:07;13.32;;;4.97;;
34982;SDS011;21187;50.976;13.720;2023-09-08T06:41:12;11.20;;;4.55;;
34982;SDS011;21187;50.976;13.720;2023-09-08T06:46:15;9.70;;;5.15;;
34982;SDS011;21187;50.976;13.720;2023-09-08T06:51:19;8.98;;;4.47;;
34982;SDS011;21187;50.976;13.720;2023-09-08T06:56:23;11.48;;;4.57;;
34982;SDS011;21187;50.976;13.720;2023-09-08T07:01:26;9.00;;;4.50;;
34982;SDS011;21187;50.976;13.720;2023-09-08T07:06:28;13.75;;;4.50;;
34982;SDS011;21187;50.976;13.720;2023-09-08T07:11:31;20.58;;;5.38;;
34982;SDS011;21187;50.976;13.720;2023-09-08T07:16:33;15.45;;;4.72;;
34982;SDS011;21187;50.976;13.720;2023-09-08T07:21:35;13.32;;;4.65;;
34982;SDS011;21187;50.976;13.720;2023-09-08T07:26:38;10.02;;;4.60;;
34982;SDS011;21187;50.976;13.720;2023-09-08T07:31:41;11.38;;;4.95;;
34982;SDS011;21187;50.976;13.720;2023-09-08T07:36:43;6.85;;;4.18;;
34982;SDS011;21187;50.976;13.720;2023-09-08T07:41:45;12.32;;;4.85;;
34982;SDS011;21187;50.976;13.720;2023-09-08T07:46:48;14.23;;;4.85;;
34982;SDS011;21187;50.976;13.720;2023-09-08T07:51:52;15.75;;;4.50;;
34982;SDS011;21187;50.976;13.720;2023-09-08T07:56:54;11.65;;;4.90;;
34982;SDS011;21187;50.976;13.720;2023-09-08T08:01:56;10.38;;;4.95;;
34982;SDS011;21187;50.976;13.720;2023-09-08T08:06:58;8.27;;;4.80;;
34982;SDS011;21187;50.976;13.720;2023-09-08T08:12:00;9.63;;;4.45;;
34982;SDS011;21187;50.976;13.720;2023-09-08T08:17:02;9.93;;;5.05;;
34982;SDS011;21187;50.976;13.720;2023-09-08T08:22:04;10.85;;;5.05;;
34982;SDS011;21187;50.976;13.720;2023-09-08T08:27:06;10.00;;;5.00;;
34982;SDS011;21187;50.976;13.720;2023-09-08T08:32:08;13.25;;;4.75;;
34982;SDS011;21187;50.976;13.720;2023-09-08T08:37:10;7.88;;;4.60;;
34982;SDS011;21187;50.976;13.720;2023-09-08T08:42:15;9.25;;;4.57;;
34982;SDS011;21187;50.976;13.720;2023-09-08T08:47:16;9.00;;;4.22;;
34982;SDS011;21187;50.976;13.720;2023-09-08T08:52:20;6.50;;;4.05;;
34982;SDS011;21187;50.976;13.720;2023-09-08T08:57:23;11.60;;;5.30;;
34982;SDS011;21187;50.976;13.720;2023-09-08T09:02:28;7.78;;;4.28;;
34982;SDS011;21187;50.976;13.720;2023-09-08T09:07:30;7.20;;;3.60;;
34982;SDS011;21187;50.976;13.720;2023-09-08T09:12:33;7.78;;;3.03;;
34982;SDS011;21187;50.976;13.720;2023-09-08T09:17:38;10.85;;;3.42;;
34982;SDS011;21187;50.976;13.720;2023-09-08T09:22:40;6.55;;;2.78;;
34982;SDS011;21187;50.976;13.720;2023-09-08T09:27:42;7.53;;;3.45;;
34982;SDS011;21187;50.976;13.720;2023-09-08T09:32:46;11.80;;;3.28;;
34982;SDS011;21187;50.976;13.720;2023-09-08T09:37:52;8.45;;;3.33;;
34982;SDS011;21187;50.976;13.720;2023-09-08T09:42:56;9.98;;;2.65;;
34982;SDS011;21187;50.976;13.720;2023-09-08T09:47:58;13.32;;;2.95;;
34982;SDS011;21187;50.976;13.720;2023-09-08T09:53:00;7.13;;;3.30;;
34982;SDS011;21187;50.976;13.720;2023-09-08T09:58:04;11.13;;;3.33;;
34982;SDS011;21187;50.976;13.720;2023-09-08T10:03:07;14.00;;;3.08;;
34982;SDS011;21187;50.976;13.720;2023-09-08T10:08:10;9.60;;;3.20;;
34982;SDS011;21187;50.976;13.720;2023-09-08T10:13:12;10.48;;;3.33;;
34982;SDS011;21187;50.976;13.720;2023-09-08T10:18:19;7.07;;;3.33;;
34982;SDS011;21187;50.976;13.720;2023-09-08T10:23:23;8.95;;;3.47;;
34982;SDS011;21187;50.976;13.720;2023-09-08T10:28:35;6.07;;;3.05;;
34982;SDS011;21187;50.976;13.720;2023-09-08T10:33:38;5.97;;;3.47;;
34982;SDS011;21187;50.976;13.720;2023-09-08T10:38:41;11.18;;;3.28;;
34982;SDS011;21187;50.976;13.720;2023-09-08T10:43:43;11.23;;;3.22;;
34982;SDS011;21187;50.976;13.720;2023-09-08T10:48:46;11.95;;;3.20;;
34982;SDS011;21187;50.976;13.720;2023-09-08T10:53:48;7.32;;;2.88;;
34982;SDS011;21187;50.976;13.720;2023-09-08T10:58:51;9.40;;;3.65;;
34982;SDS011;21187;50.976;13.720;2023-09-08T11:03:54;7.70;;;2.55;;
34982;SDS011;21187;50.976;13.720;2023-09-08T11:08:56;6.97;;;3.13;;
34982;SDS011;21187;50.976;13.720;2023-09-08T11:14:08;7.93;;;2.95;;
34982;SDS011;21187;50.976;13.720;2023-09-08T11:19:10;6.35;;;2.85;;
34982;SDS011;21187;50.976;13.720;2023-09-08T11:24:12;9.45;;;3.05;;
34982;SDS011;21187;50.976;13.720;2023-09-08T11:29:16;9.73;;;2.63;;
34982;SDS011;21187;50.976;13.720;2023-09-08T11:34:18;7.63;;;2.88;;
34982;SDS011;21187;50.976;13.720;2023-09-08T11:39:23;6.72;;;3.15;;
34982;SDS011;21187;50.976;13.720;2023-09-08T11:44:26;5.32;;;2.88;;
34982;SDS011;21187;50.976;13.720;2023-09-08T11:49:38;9.07;;;3.38;;
34982;SDS011;21187;50.976;13.720;2023-09-08T11:54:41;9.88;;;3.30;;
34982;SDS011;21187;50.976;13.720;2023-09-08T12:00:03;5.32;;;3.17;;
34982;SDS011;21187;50.976;13.720;2023-09-08T12:05:11;9.88;;;3.55;;
34982;SDS011;21187;50.976;13.720;2023-09-08T12:10:14;8.20;;;2.50;;
34982;SDS011;21187;50.976;13.720;2023-09-08T12:20:39;8.05;;;2.63;;
34982;SDS011;21187;50.976;13.720;2023-09-08T12:25:45;4.00;;;2.40;;
34982;SDS011;21187;50.976;13.720;2023-09-08T12:30:51;3.78;;;2.33;;
34982;SDS011;21187;50.976;13.720;2023-09-08T12:35:55;5.78;;;2.80;;
34982;SDS011;21187;50.976;13.720;2023-09-08T12:40:56;10.05;;;3.40;;
34982;SDS011;21187;50.976;13.720;2023-09-08T12:45:58;6.93;;;2.75;;
34982;SDS011;21187;50.976;13.720;2023-09-08T12:51:00;6.63;;;2.67;;
34982;SDS011;21187;50.976;13.720;2023-09-08T12:56:03;9.80;;;2.55;;
34982;SDS011;21187;50.976;13.720;2023-09-08T13:01:05;6.03;;;2.42;;
34982;SDS011;21187;50.976;13.720;2023-09-08T13:06:08;11.88;;;2.90;;
34982;SDS011;21187;50.976;13.720;2023-09-08T13:11:10;6.20;;;3.00;;
34982;SDS011;21187;50.976;13.720;2023-09-08T13:16:12;8.98;;;3.33;;
34982;SDS011;21187;50.976;13.720;2023-09-08T13:21:14;7.47;;;3.03;;
34982;SDS011;21187;50.976;13.720;2023-09-08T13:26:16;5.45;;;3.00;;
34982;SDS011;21187;50.976;13.720;2023-09-08T13:31:18;6.93;;;3.13;;
34982;SDS011;21187;50.976;13.720;2023-09-08T13:36:20;8.70;;;2.72;;
34982;SDS011;21187;50.976;13.720;2023-09-08T13:41:22;10.05;;;2.60;;
34982;SDS011;21187;50.976;13.720;2023-09-08T13:46:24;3.65;;;2.50;;
34982;SDS011;21187;50.976;13.720;2023-09-08T13:51:26;6.97;;;2.95;;
34982;SDS011;21187;50.976;13.720;2023-09-08T13:56:29;6.93;;;2.67;;
34982;SDS011;21187;50.976;13.720;2023-09-08T14:01:34;11.85;;;3.20;;
34982;SDS011;21187;50.976;13.720;2023-09-08T14:06:42;10.40;;;2.40;;
34982;SDS011;21187;50.976;13.720;2023-09-08T14:11:47;5.43;;;2.53;;
34982;SDS011;21187;50.976;13.720;2023-09-08T14:16:51;4.78;;;2.55;;
34982;SDS011;21187;50.976;13.720;2023-09-08T14:21:53;6.25;;;2.92;;
34982;SDS011;21187;50.976;13.720;2023-09-08T14:26:55;5.40;;;2.63;;
34982;SDS011;21187;50.976;13.720;2023-09-08T14:31:57;5.80;;;2.40;;
34982;SDS011;21187;50.976;13.720;2023-09-08T14:36:59;6.85;;;2.35;;
34982;SDS011;21187;50.976;13.720;2023-09-08T14:42:04;6.85;;;3.42;;
34982;SDS011;21187;50.976;13.720;2023-09-08T14:47:07;6.47;;;2.75;;
34982;SDS011;21187;50.976;13.720;2023-09-08T14:52:10;5.65;;;2.75;;
34982;SDS011;21187;50.976;13.720;2023-09-08T14:57:12;4.75;;;2.85;;
34982;SDS011;21187;50.976;13.720;2023-09-08T15:02:14;7.32;;;2.47;;
34982;SDS011;21187;50.976;13.720;2023-09-08T15:07:15;10.38;;;2.85;;
34982;SDS011;21187;50.976;13.720;2023-09-08T15:12:17;5.15;;;2.80;;
34982;SDS011;21187;50.976;13.720;2023-09-08T15:17:19;12.85;;;3.28;;
34982;SDS011;21187;50.976;13.720;2023-09-08T15:22:21;8.27;;;2.58;;
34982;SDS011;21187;50.976;13.720;2023-09-08T15:27:23;7.28;;;2.88;;
34982;SDS011;21187;50.976;13.720;2023-09-08T15:32:25;5.72;;;3.15;;
34982;SDS011;21187;50.976;13.720;2023-09-08T15:37:27;5.65;;;3.13;;
34982;SDS011;21187;50.976;13.720;2023-09-08T15:42:29;4.72;;;2.78;;
34982;SDS011;21187;50.976;13.720;2023-09-08T15:47:31;5.75;;;3.17;;
34982;SDS011;21187;50.976;13.720;2023-09-08T15:52:33;7.88;;;2.80;;
34982;SDS011;21187;50.976;13.720;2023-09-08T15:57:35;4.95;;;2.67;;
34982;SDS011;21187;50.976;13.720;2023-09-08T16:02:36;6.45;;;3.00;;
34982;SDS011;21187;50.976;13.720;2023-09-08T16:07:38;7.45;;;2.83;;
34982;SDS011;21187;50.976;13.720;2023-09-08T16:12:40;6.57;;;3.08;;
34982;SDS011;21187;50.976;13.720;2023-09-08T16:17:42;9.27;;;2.60;;
34982;SDS011;21187;50.976;13.720;2023-09-08T16:22:44;7.80;;;2.90;;
34982;SDS011;21187;50.976;13.720;2023-09-08T16:27:46;7.32;;;3.35;;
34982;SDS011;21187;50.976;13.720;2023-09-08T16:32:48;4.45;;;2.90;;
34982;SDS011;21187;50.976;13.720;2023-09-08T16:37:50;9.38;;;3.28;;
34982;SDS011;21187;50.976;13.720;2023-09-08T16:42:52;9.55;;;3.03;;
34982;SDS011;21187;50.976;13.720;2023-09-08T16:47:54;7.13;;;3.33;;
34982;SDS011;21187;50.976;13.720;2023-09-08T16:52:56;9.30;;;3.17;;
34982;SDS011;21187;50.976;13.720;2023-09-08T16:57:58;5.25;;;2.63;;
34982;SDS011;21187;50.976;13.720;2023-09-08T17:03:00;5.63;;;3.42;;
34982;SDS011;21187;50.976;13.720;2023-09-08T17:08:02;6.70;;;2.67;;
34982;SDS011;21187;50.976;13.720;2023-09-08T17:13:04;5.03;;;2.83;;
34982;SDS011;21187;50.976;13.720;2023-09-08T17:18:06;6.10;;;3.15;;
34982;SDS011;21187;50.976;13.720;2023-09-08T17:23:08;7.72;;;3.33;;
34982;SDS011;21187;50.976;13.720;2023-09-08T17:28:10;6.15;;;3.08;;
34982;SDS011;21187;50.976;13.720;2023-09-08T17:33:12;8.73;;;3.47;;
34982;SDS011;21187;50.976;13.720;2023-09-08T17:38:14;12.43;;;4.88;;
34982;SDS011;21187;50.976;13.720;2023-09-08T17:43:16;8.18;;;4.22;;
34982;SDS011;21187;50.976;13.720;2023-09-08T17:48:18;7.88;;;4.28;;
34982;SDS011;21187;50.976;13.720;2023-09-08T17:53:20;8.55;;;4.72;;
34982;SDS011;21187;50.976;13.720;2023-09-08T17:58:22;9.30;;;4.55;;
34982;SDS011;21187;50.976;13.720;2023-09-08T18:03:23;9.10;;;4.40;;
34982;SDS011;21187;50.976;13.720;2023-09-08T18:08:26;8.32;;;4.10;;
34982;SDS011;21187;50.976;13.720;2023-09-08T18:13:27;9.65;;;4.88;;
34982;SDS011;21187;50.976;13.720;2023-09-08T18:18:30;9.95;;;3.95;;
34982;SDS011;21187;50.976;13.720;2023-09-08T18:23:34;7.30;;;3.60;;
34982;SDS011;21187;50.976;13.720;2023-09-08T18:28:36;18.23;;;3.83;;
34982;SDS011;21187;50.976;13.720;2023-09-08T18:33:38;11.15;;;4.78;;
34982;SDS011;21187;50.976;13.720;2023-09-08T18:38:40;13.40;;;6.28;;
34982;SDS011;21187;50.976;13.720;2023-09-08T18:43:43;9.93;;;5.95;;
34982;SDS011;21187;50.976;13.720;2023-09-08T18:48:45;12.13;;;5.03;;
34982;SDS011;21187;50.976;13.720;2023-09-08T18:53:47;9.55;;;4.88;;
34982;SDS011;21187;50.976;13.720;2023-09-08T18:58:49;8.57;;;4.10;;
34982;SDS011;21187;50.976;13.720;2023-09-08T19:03:51;6.30;;;3.80;;
34982;SDS011;21187;50.976;13.720;2023-09-08T19:08:53;7.78;;;4.47;;
34982;SDS011;21187;50.976;13.720;2023-09-08T19:13:54;7.25;;;3.97;;
34982;SDS011;21187;50.976;13.720;2023-09-08T19:18:56;12.02;;;3.90;;
34982;SDS011;21187;50.976;13.720;2023-09-08T19:23:59;14.48;;;5.90;;
34982;SDS011;21187;50.976;13.720;2023-09-08T19:29:00;6.72;;;3.70;;
34982;SDS011;21187;50.976;13.720;2023-09-08T19:34:03;9.20;;;5.05;;
34982;SDS011;21187;50.976;13.720;2023-09-08T19:39:05;6.68;;;3.83;;
34982;SDS011;21187;50.976;13.720;2023-09-08T19:44:08;7.80;;;4.38;;
34982;SDS011;21187;50.976;13.720;2023-09-08T19:49:10;7.93;;;4.43;;
34982;SDS011;21187;50.976;13.720;2023-09-08T19:54:12;6.78;;;4.05;;
34982;SDS011;21187;50.976;13.720;2023-09-08T19:59:14;11.68;;;3.83;;
34982;SDS011;21187;50.976;13.720;2023-09-08T20:04:19;7.85;;;3.90;;
34982;SDS011;21187;50.976;13.720;2023-09-08T20:09:21;8.52;;;4.72;;
34982;SDS011;21187;50.976;13.720;2023-09-08T20:14:24;10.68;;;4.80;;
34982;SDS011;21187;50.976;13.720;2023-09-08T20:19:27;6.97;;;4.28;;
34982;SDS011;21187;50.976;13.720;2023-09-08T20:24:29;11.23;;;5.10;;
34982;SDS011;21187;50.976;13.720;2023-09-08T20:29:31;10.38;;;4.25;;
34982;SDS011;21187;50.976;13.720;2023-09-08T20:34:33;10.27;;;4.20;;
34982;SDS011;21187;50.976;13.720;2023-09-08T20:39:36;7.20;;;4.30;;
34982;SDS011;21187;50.976;13.720;2023-09-08T20:44:38;7.35;;;4.05;;
34982;SDS011;21187;50.976;13.720;2023-09-08T20:49:41;7.88;;;4.85;;
34982;SDS011;21187;50.976;13.720;2023-09-08T20:54:43;8.93;;;5.07;;
34982;SDS011;21187;50.976;13.720;2023-09-08T20:59:48;11.20;;;4.60;;
34982;SDS011;21187;50.976;13.720;2023-09-08T21:04:50;10.48;;;4.82;;
34982;SDS011;21187;50.976;13.720;2023-09-08T21:09:51;9.40;;;4.75;;
34982;SDS011;21187;50.976;13.720;2023-09-08T21:14:53;10.40;;;3.92;;
34982;SDS011;21187;50.976;13.720;2023-09-08T21:19:55;12.10;;;4.38;;
34982;SDS011;21187;50.976;13.720;2023-09-08T21:24:59;10.32;;;4.10;;
34982;SDS011;21187;50.976;13.720;2023-09-08T21:30:01;9.75;;;4.65;;
34982;SDS011;21187;50.976;13.720;2023-09-08T21:35:04;9.48;;;4.55;;
34982;SDS011;21187;50.976;13.720;2023-09-08T21:40:06;9.98;;;4.22;;
34982;SDS011;21187;50.976;13.720;2023-09-08T21:45:09;8.25;;;4.43;;
34982;SDS011;21187;50.976;13.720;2023-09-08T21:50:11;12.32;;;4.22;;
34982;SDS011;21187;50.976;13.720;2023-09-08T21:55:13;7.57;;;4.50;;
34982;SDS011;21187;50.976;13.720;2023-09-08T22:00:18;9.05;;;4.55;;
34982;SDS011;21187;50.976;13.720;2023-09-08T22:05:22;8.88;;;4.30;;
34982;SDS011;21187;50.976;13.720;2023-09-08T22:10:24;7.82;;;4.03;;
34982;SDS011;21187;50.976;13.720;2023-09-08T22:15:27;10.95;;;4.22;;
34982;SDS011;21187;50.976;13.720;2023-09-08T22:20:29;8.60;;;4.50;;
34982;SDS011;21187;50.976;13.720;2023-09-08T22:25:31;6.80;;;3.88;;
34982;SDS011;21187;50.976;13.720;2023-09-08T22:30:35;8.52;;;4.60;;
34982;SDS011;21187;50.976;13.720;2023-09-08T22:35:36;8.07;;;4.32;;
34982;SDS011;21187;50.976;13.720;2023-09-08T22:40:38;7.88;;;4.03;;
34982;SDS011;21187;50.976;13.720;2023-09-08T22:45:41;8.15;;;4.10;;
34982;SDS011;21187;50.976;13.720;2023-09-08T22:50:44;7.28;;;4.10;;
34982;SDS011;21187;50.976;13.720;2023-09-08T22:55:45;9.80;;;3.97;;
34982;SDS011;21187;50.976;13.720;2023-09-08T23:00:47;7.95;;;4.25;;
34982;SDS011;21187;50.976;13.720;2023-09-08T23:05:49;7.00;;;4.00;;
34982;SDS011;21187;50.976;13.720;2023-09-08T23:10:51;10.82;;;4.30;;
34982;SDS011;21187;50.976;13.720;2023-09-08T23:15:54;8.45;;;4.90;;
34982;SDS011;21187;50.976;13.720;2023-09-08T23:20:56;8.23;;;4.13;;
34982;SDS011;21187;50.976;13.720;2023-09-08T23:25:57;8.40;;;4.55;;
34982;SDS011;21187;50.976;13.720;2023-09-08T23:30:59;10.35;;;4.50;;
34982;SDS011;21187;50.976;13.720;2023-09-08T23:36:01;8.68;;;3.85;;
34982;SDS011;21187;50.976;13.720;2023-09-08T23:41:03;8.73;;;4.82;;
34982;SDS011;21187;50.976;13.720;2023-09-08T23:46:05;8.85;;;4.40;;
34982;SDS011;21187;50.976;13.720;2023-09-08T23:51:07;6.97;;;4.13;;
34982;SDS011;21187;50.976;13.720;2023-09-08T23:56:10;7.13;;;3.95;;
